createdAt,value
2023-01-12T00:02:22.505Z,63.18
2023-01-12T00:04:50.923Z,63.09
2023-01-12T00:07:20.542Z,62.25
2023-01-12T00:09:49.176Z,62.77
2023-01-12T00:12:17.518Z,62.45
2023-01-12T00:14:45.913Z,62.16
2023-01-12T00:17:17.395Z,62.70
2023-01-12T00:19:47.132Z,60.69
2023-01-12T00:22:19.494Z,61.46
2023-01-12T00:24:50.113Z,62.33
2023-01-12T00:27:21.359Z,62.88
2023-01-12T00:29:49.760Z,62.10
2023-01-12T00:32:20.581Z,62.07
2023-01-12T00:34:50.513Z,61.74
2023-01-12T00:37:20.775Z,62.29
2023-01-12T00:40:01.565Z,62.69
2023-01-12T00:42:48.196Z,61.93
2023-01-12T00:45:22.953Z,62.22
2023-01-12T00:47:51.422Z,62.34
2023-01-12T00:50:21.285Z,62.25
2023-01-12T00:52:49.591Z,62.65
2023-01-12T00:55:18.035Z,62.29
2023-01-12T00:57:47.015Z,62.46
2023-01-12T01:00:16.436Z,62.10
2023-01-12T01:02:44.750Z,62.22
2023-01-12T01:05:13.180Z,62.23
2023-01-12T01:07:42.979Z,62.24
2023-01-12T01:10:12.627Z,62.27
2023-01-12T01:12:41.129Z,62.50
2023-01-12T01:15:10.682Z,62.47
2023-01-12T01:17:38.990Z,62.86
2023-01-12T01:20:07.909Z,62.97
2023-01-12T01:22:36.313Z,62.24
2023-01-12T01:25:06.880Z,62.59
2023-01-12T01:27:35.198Z,62.04
2023-01-12T01:30:03.635Z,62.73
2023-01-12T01:32:32.024Z,63.29
2023-01-12T01:35:00.353Z,63.43
2023-01-12T01:37:30.043Z,63.34
2023-01-12T01:39:58.324Z,63.15
2023-01-12T01:42:31.093Z,63.31
2023-01-12T01:45:00.824Z,63.27
2023-01-12T01:47:36.227Z,63.10
2023-01-12T01:50:08.951Z,63.16
2023-01-12T01:52:41.364Z,63.64
2023-01-12T01:55:14.463Z,63.39
2023-01-12T01:57:50.296Z,62.97
2023-01-12T02:00:19.624Z,63.27
2023-01-12T02:02:49.789Z,63.32
2023-01-12T02:05:22.576Z,63.85
2023-01-12T02:07:52.202Z,63.67
2023-01-12T02:10:21.301Z,63.90
2023-01-12T02:13:09.591Z,64.14
2023-01-12T02:16:02.954Z,63.08
2023-01-12T02:18:37.314Z,63.54
2023-01-12T02:21:16.436Z,63.77
2023-01-12T02:24:24.094Z,64.12
2023-01-12T02:27:30.027Z,64.17
2023-01-12T02:30:41.689Z,64.75
2023-01-12T02:33:24.192Z,64.53
2023-01-12T02:35:59.787Z,64.76
2023-01-12T02:38:38.598Z,64.86
2023-01-12T02:41:16.779Z,64.49
2023-01-12T02:43:45.204Z,64.40
2023-01-12T02:46:21.182Z,64.70
2023-01-12T02:48:57.235Z,64.17
2023-01-12T02:51:29.413Z,64.48
2023-01-12T02:54:02.478Z,64.36
2023-01-12T02:56:34.665Z,64.77
2023-01-12T02:59:08.708Z,64.39
2023-01-12T03:01:38.961Z,64.19
2023-01-12T03:04:10.602Z,65.43
2023-01-12T03:06:45.830Z,65.74
2023-01-12T03:09:18.514Z,65.71
2023-01-12T03:11:49.154Z,65.71
2023-01-12T03:14:19.085Z,65.77
2023-01-12T03:16:47.856Z,65.60
2023-01-12T03:19:22.587Z,65.79
2023-01-12T03:21:55.549Z,65.80
2023-01-12T03:24:27.775Z,65.78
2023-01-12T03:27:05.254Z,66.15
2023-01-12T03:29:37.923Z,66.27
2023-01-12T03:32:07.010Z,66.20
2023-01-12T03:34:39.008Z,65.90
2023-01-12T03:37:12.792Z,66.48
2023-01-12T03:39:48.563Z,67.00
2023-01-12T03:42:22.565Z,66.82
2023-01-12T03:45:00.553Z,66.81
2023-01-12T03:47:31.439Z,66.75
2023-01-12T03:50:05.202Z,66.71
2023-01-12T03:52:35.378Z,67.24
2023-01-12T03:55:06.729Z,66.71
2023-01-12T03:57:36.465Z,66.71
2023-01-12T04:00:08.535Z,66.87
2023-01-12T04:02:37.110Z,66.88
2023-01-12T04:05:08.883Z,67.13
2023-01-12T04:07:37.227Z,67.13
2023-01-12T04:10:06.098Z,67.08
2023-01-12T04:12:34.682Z,67.01
2023-01-12T04:15:03.087Z,67.11
2023-01-12T04:17:31.519Z,66.38
2023-01-12T04:19:59.972Z,66.98
2023-01-12T04:22:43.565Z,66.50
2023-01-12T04:25:12.664Z,66.83
2023-01-12T04:27:47.454Z,67.06
2023-01-12T04:30:17.060Z,66.82
2023-01-12T04:32:46.569Z,67.12
2023-01-12T04:35:16.497Z,67.70
2023-01-12T04:37:47.775Z,67.40
2023-01-12T04:40:17.302Z,66.84
2023-01-12T04:43:08.908Z,66.18
2023-01-12T04:45:39.421Z,67.23
2023-01-12T04:48:10.125Z,67.60
2023-01-12T04:50:39.522Z,67.61
2023-01-12T04:53:12.042Z,67.59
2023-01-12T04:55:43.324Z,67.25
2023-01-12T04:58:12.036Z,67.08
2023-01-12T05:00:40.661Z,67.02
2023-01-12T05:03:12.932Z,67.61
2023-01-12T05:05:42.185Z,66.93
2023-01-12T05:08:29.403Z,67.16
2023-01-12T05:10:59.471Z,67.25
2023-01-12T05:13:29.551Z,67.64
2023-01-12T05:15:57.979Z,67.09
2023-01-12T05:18:28.086Z,67.18
2023-01-12T05:20:58.476Z,67.38
2023-01-12T05:23:28.262Z,67.46
2023-01-12T05:26:00.519Z,67.80
2023-01-12T05:28:29.075Z,67.26
2023-01-12T05:31:03.024Z,67.61
2023-01-12T05:33:31.343Z,67.68
2023-01-12T05:35:59.673Z,67.65
2023-01-12T05:38:30.769Z,67.70
2023-01-12T05:41:00.550Z,67.62
2023-01-12T05:43:46.856Z,67.37
2023-01-12T05:46:16.462Z,68.00
2023-01-12T05:48:45.014Z,67.92
2023-01-12T05:51:13.670Z,67.40
2023-01-12T05:53:43.513Z,67.60
2023-01-12T05:56:20.707Z,68.45
2023-01-12T05:58:52.831Z,68.16
2023-01-12T06:01:22.206Z,67.92
2023-01-12T06:03:51.495Z,67.16
2023-01-12T06:06:20.144Z,66.47
2023-01-12T06:08:52.511Z,66.79
2023-01-12T06:11:39.087Z,66.94
2023-01-12T06:14:07.843Z,67.44
2023-01-12T06:16:38.833Z,67.02
2023-01-12T06:19:07.604Z,67.02
2023-01-12T06:21:36.259Z,67.58
2023-01-12T06:24:06.808Z,67.17
2023-01-12T06:26:35.336Z,67.75
2023-01-12T06:29:05.633Z,67.55
2023-01-12T06:31:34.149Z,67.61
2023-01-12T06:34:02.528Z,67.60
2023-01-12T06:36:30.846Z,67.45
2023-01-12T06:38:59.216Z,66.61
2023-01-12T06:41:45.416Z,66.96
2023-01-12T06:44:14.124Z,66.88
2023-01-12T06:46:42.527Z,67.26
2023-01-12T06:49:10.908Z,67.39
2023-01-12T06:51:39.555Z,66.96
2023-01-12T06:54:07.919Z,67.29
2023-01-12T06:56:37.631Z,67.30
2023-01-12T06:59:06.009Z,67.55
2023-01-12T07:01:34.433Z,67.53
2023-01-12T07:04:02.904Z,67.74
2023-01-12T07:06:31.251Z,67.40
2023-01-12T07:08:59.614Z,67.34
2023-01-12T07:11:28.130Z,67.30
2023-01-12T07:13:58.222Z,67.34
2023-01-12T07:16:26.546Z,67.03
2023-01-12T07:18:54.878Z,66.68
2023-01-12T07:21:23.135Z,66.74
2023-01-12T07:23:51.567Z,66.75
2023-01-12T07:26:19.885Z,66.79
2023-01-12T07:28:48.334Z,66.80
2023-01-12T07:31:19.610Z,66.74
2023-01-12T07:33:48.051Z,66.91
2023-01-12T07:36:16.376Z,66.82
2023-01-12T07:38:44.902Z,66.84
2023-01-12T07:41:34.371Z,66.18
2023-01-12T07:44:02.975Z,66.24
2023-01-12T07:46:32.842Z,66.04
2023-01-12T07:49:01.236Z,65.61
2023-01-12T07:51:30.285Z,65.79
2023-01-12T07:53:58.692Z,65.92
2023-01-12T07:56:27.099Z,66.37
2023-01-12T07:58:55.547Z,66.67
2023-01-12T08:01:23.941Z,66.87
2023-01-12T08:03:53.836Z,66.63
2023-01-12T08:06:22.143Z,66.16
2023-01-12T08:08:50.485Z,67.18
2023-01-12T08:11:19.420Z,66.83
2023-01-12T08:13:47.806Z,66.95
2023-01-12T08:16:20.834Z,66.83
2023-01-12T08:18:52.904Z,67.19
2023-01-12T08:21:27.277Z,66.76
2023-01-12T08:24:00.104Z,66.78
2023-01-12T08:26:33.147Z,67.17
2023-01-12T08:29:06.486Z,67.30
2023-01-12T08:31:35.078Z,67.39
2023-01-12T08:34:03.528Z,66.84
2023-01-12T08:36:34.221Z,66.63
2023-01-12T08:39:04.437Z,67.11
2023-01-12T08:41:37.844Z,67.00
2023-01-12T08:44:09.422Z,67.62
2023-01-12T08:46:39.459Z,67.56
2023-01-12T08:49:11.840Z,67.43
2023-01-12T08:51:47.191Z,67.55
2023-01-12T08:54:17.729Z,67.26
2023-01-12T08:56:46.480Z,67.84
2023-01-12T08:59:15.028Z,67.68
2023-01-12T09:01:43.785Z,67.19
2023-01-12T09:04:12.594Z,67.39
2023-01-12T09:06:42.684Z,67.30
2023-01-12T09:09:14.433Z,66.99
2023-01-12T09:11:44.205Z,67.45
2023-01-12T09:14:13.580Z,67.22
2023-01-12T09:16:42.327Z,67.14
2023-01-12T09:19:11.427Z,66.74
2023-01-12T09:21:41.134Z,67.13
2023-01-12T09:24:10.036Z,67.51
2023-01-12T09:26:42.120Z,67.65
2023-01-12T09:29:12.023Z,67.07
2023-01-12T09:31:42.444Z,67.71
2023-01-12T09:34:11.222Z,68.13
2023-01-12T09:36:42.176Z,67.96
2023-01-12T09:39:15.535Z,68.01
2023-01-12T09:42:09.634Z,67.91
2023-01-12T09:44:58.194Z,67.91
2023-01-12T09:47:33.414Z,67.70
2023-01-12T09:50:10.021Z,68.27
2023-01-12T09:52:42.917Z,68.03
2023-01-12T09:55:17.783Z,67.78
2023-01-12T09:58:22.985Z,67.05
2023-01-12T10:00:52.684Z,67.82
2023-01-12T10:03:28.527Z,68.66
2023-01-12T10:06:00.700Z,68.05
2023-01-12T10:08:36.004Z,68.38
2023-01-12T10:11:13.366Z,68.30
2023-01-12T10:13:57.138Z,67.73
2023-01-12T10:16:34.346Z,66.83
2023-01-12T10:19:09.124Z,67.47
2023-01-12T10:21:37.845Z,66.90
2023-01-12T10:24:13.194Z,67.62
2023-01-12T10:26:44.594Z,68.06
2023-01-12T10:29:14.501Z,67.99
2023-01-12T10:31:42.894Z,68.23
2023-01-12T10:34:13.255Z,67.62
2023-01-12T10:36:45.665Z,67.70
2023-01-12T10:39:42.832Z,68.12
2023-01-12T10:42:38.015Z,68.03
2023-01-12T10:45:15.933Z,67.56
2023-01-12T10:47:45.815Z,67.19
2023-01-12T10:50:26.473Z,67.67
2023-01-12T10:53:02.208Z,67.48
2023-01-12T10:55:33.901Z,67.71
2023-01-12T10:58:02.663Z,67.04
2023-01-12T11:00:33.039Z,67.47
2023-01-12T11:03:01.403Z,67.67
2023-01-12T11:05:36.888Z,67.59
2023-01-12T11:08:05.875Z,67.47
2023-01-12T11:10:37.531Z,67.59
2023-01-12T11:13:09.019Z,67.24
2023-01-12T11:15:40.417Z,67.17
2023-01-12T11:18:33.747Z,67.49
2023-01-12T11:21:06.821Z,67.64
2023-01-12T11:23:42.613Z,66.92
2023-01-12T11:26:18.880Z,66.35
2023-01-12T11:28:50.336Z,67.46
2023-01-12T11:31:24.100Z,67.47
2023-01-12T11:33:53.929Z,68.32
2023-01-12T11:36:27.833Z,68.00
2023-01-12T11:39:02.106Z,67.79
2023-01-12T11:41:36.813Z,67.97
2023-01-12T11:44:16.784Z,68.03
2023-01-12T11:46:51.105Z,68.22
2023-01-12T11:49:24.825Z,68.27
2023-01-12T11:51:57.082Z,68.58
2023-01-12T11:54:27.210Z,68.01
2023-01-12T11:57:34.075Z,67.70
2023-01-12T12:00:16.671Z,67.94
2023-01-12T12:02:58.481Z,68.26
2023-01-12T12:05:40.466Z,68.38
2023-01-12T12:08:21.667Z,68.17
2023-01-12T12:10:54.578Z,68.35
2023-01-12T12:13:36.907Z,67.85
2023-01-12T12:16:15.593Z,67.81
2023-01-12T12:19:17.097Z,68.12
2023-01-12T12:21:49.923Z,67.69
2023-01-12T12:24:34.642Z,67.95
2023-01-12T12:27:14.889Z,68.57
2023-01-12T12:30:04.471Z,68.52
2023-01-12T12:32:41.847Z,68.06
2023-01-12T12:35:45.690Z,68.35
2023-01-12T12:38:27.776Z,68.34
2023-01-12T12:41:27.895Z,67.76
2023-01-12T12:44:28.438Z,67.16
2023-01-12T12:47:01.994Z,67.70
2023-01-12T12:49:33.508Z,68.40
2023-01-12T12:52:05.011Z,68.13
2023-01-12T12:54:34.325Z,67.86
2023-01-12T12:57:02.870Z,67.82
2023-01-12T12:59:53.342Z,67.70
2023-01-12T13:02:55.712Z,68.42
2023-01-12T13:05:43.541Z,68.91
2023-01-12T13:08:23.008Z,68.33
2023-01-12T13:10:56.254Z,68.37
2023-01-12T13:13:31.872Z,68.53
2023-01-12T13:16:42.917Z,68.27
2023-01-12T13:19:37.175Z,68.43
2023-01-12T13:22:23.620Z,68.52
2023-01-12T13:24:54.167Z,68.96
2023-01-12T13:27:55.928Z,68.80
2023-01-12T13:30:41.822Z,68.80
2023-01-12T13:33:24.296Z,68.87
2023-01-12T13:36:10.546Z,68.12
2023-01-12T13:38:53.464Z,67.88
2023-01-12T13:41:47.279Z,67.97
2023-01-12T13:44:22.586Z,68.17
2023-01-12T13:46:52.739Z,68.07
2023-01-12T13:49:27.447Z,68.95
2023-01-12T13:52:01.037Z,68.35
2023-01-12T13:54:30.196Z,67.13
2023-01-12T13:57:01.675Z,67.98
2023-01-12T13:59:31.086Z,68.58
2023-01-12T14:01:59.818Z,68.61
2023-01-12T14:04:57.949Z,69.10
2023-01-12T14:07:40.383Z,69.33
2023-01-12T14:10:23.863Z,68.92
2023-01-12T14:13:18.893Z,68.90
2023-01-12T14:16:04.927Z,69.02
2023-01-12T14:18:44.372Z,69.06
2023-01-12T14:21:24.122Z,69.18
2023-01-12T14:23:52.766Z,69.64
2023-01-12T14:26:24.224Z,69.62
2023-01-12T14:28:54.646Z,69.66
2023-01-12T14:31:31.957Z,69.72
2023-01-12T14:34:02.497Z,69.33
2023-01-12T14:36:35.935Z,69.52
2023-01-12T14:39:10.555Z,69.92
2023-01-12T14:41:55.978Z,69.83
2023-01-12T14:44:44.573Z,69.19
2023-01-12T14:47:25.056Z,69.24
2023-01-12T14:49:53.386Z,69.91
2023-01-12T14:52:30.712Z,69.51
2023-01-12T14:55:18.184Z,69.56
2023-01-12T14:57:50.545Z,69.71
2023-01-12T15:00:24.109Z,69.20
2023-01-12T15:02:53.734Z,68.79
2023-01-12T15:05:25.767Z,69.16
2023-01-12T15:07:56.764Z,69.27
2023-01-12T15:10:31.645Z,69.27
2023-01-12T15:13:13.918Z,69.31
2023-01-12T15:16:00.799Z,69.50
2023-01-12T15:18:46.356Z,69.71
2023-01-12T15:21:32.362Z,69.36
2023-01-12T15:24:23.123Z,69.74
2023-01-12T15:27:02.001Z,70.12
2023-01-12T15:29:42.543Z,69.80
2023-01-12T15:32:16.733Z,70.17
2023-01-12T15:34:45.031Z,70.14
2023-01-12T15:37:16.966Z,69.65
2023-01-12T15:39:45.626Z,69.66
2023-01-12T15:42:17.948Z,68.80
2023-01-12T15:44:48.648Z,69.29
2023-01-12T15:47:18.797Z,69.97
2023-01-12T15:49:49.215Z,69.85
2023-01-12T15:52:20.438Z,70.13
2023-01-12T15:54:48.959Z,70.22
2023-01-12T15:57:18.078Z,70.53
2023-01-12T15:59:48.013Z,70.03
2023-01-12T16:02:26.685Z,70.14
2023-01-12T16:04:55.047Z,70.42
2023-01-12T16:07:23.392Z,70.70
2023-01-12T16:09:51.708Z,70.56
2023-01-12T16:12:20.261Z,70.76
2023-01-12T16:14:50.316Z,70.00
2023-01-12T16:17:19.061Z,68.86
2023-01-12T16:19:47.396Z,68.93
2023-01-12T16:22:18.065Z,69.14
2023-01-12T16:24:46.416Z,69.80
2023-01-12T16:27:14.827Z,70.13
2023-01-12T16:29:43.438Z,69.94
2023-01-12T16:32:13.442Z,70.37
2023-01-12T16:34:42.102Z,70.46
2023-01-12T16:37:13.798Z,70.13
2023-01-12T16:39:42.881Z,70.07
2023-01-12T16:42:11.749Z,69.63
2023-01-12T16:44:43.824Z,70.22
2023-01-12T16:47:16.132Z,70.18
2023-01-12T16:49:44.814Z,70.58
2023-01-12T16:52:16.630Z,70.21
2023-01-12T16:54:45.134Z,70.40
2023-01-12T16:57:15.491Z,70.17
2023-01-12T16:59:44.473Z,70.08
2023-01-12T17:02:16.220Z,69.71
2023-01-12T17:04:45.928Z,69.87
2023-01-12T17:07:14.427Z,69.99
2023-01-12T17:09:43.111Z,70.66
2023-01-12T17:12:11.723Z,70.81
2023-01-12T17:14:40.418Z,70.80
2023-01-12T17:17:10.619Z,70.71
2023-01-12T17:19:43.152Z,70.75
2023-01-12T17:22:12.002Z,70.99
2023-01-12T17:24:41.973Z,70.65
2023-01-12T17:27:11.288Z,70.75
2023-01-12T17:29:40.233Z,70.54
2023-01-12T17:32:08.818Z,70.44
2023-01-12T17:34:40.212Z,71.00
2023-01-12T17:37:09.845Z,70.95
2023-01-12T17:39:43.069Z,70.88
2023-01-12T17:42:30.400Z,71.37
2023-01-12T17:44:58.820Z,71.43
2023-01-12T17:47:27.389Z,71.52
2023-01-12T17:49:57.250Z,71.63
2023-01-12T17:52:26.323Z,71.35
2023-01-12T17:54:54.672Z,71.26
2023-01-12T17:57:23.168Z,71.22
2023-01-12T17:59:52.048Z,70.83
2023-01-12T18:02:20.488Z,70.51
2023-01-12T18:04:49.035Z,70.96
2023-01-12T18:07:18.822Z,70.77
2023-01-12T18:09:47.229Z,70.54
2023-01-12T18:12:16.559Z,70.70
2023-01-12T18:14:44.919Z,70.75
2023-01-12T18:17:13.229Z,70.53
2023-01-12T18:19:42.498Z,70.34
2023-01-12T18:22:11.320Z,71.21
2023-01-12T18:24:41.353Z,70.90
2023-01-12T18:27:11.189Z,70.71
2023-01-12T18:29:42.431Z,70.65
2023-01-12T18:32:11.432Z,70.93
2023-01-12T18:34:39.857Z,71.05
2023-01-12T18:37:08.233Z,70.62
2023-01-12T18:39:36.524Z,70.70
2023-01-12T18:42:23.830Z,70.11
2023-01-12T18:44:52.215Z,70.17
2023-01-12T18:47:40.425Z,70.37
2023-01-12T18:50:26.564Z,70.29
2023-01-12T18:53:12.462Z,70.33
2023-01-12T18:55:41.804Z,69.36
2023-01-12T18:58:11.613Z,69.28
2023-01-12T19:00:40.019Z,69.93
2023-01-12T19:03:08.851Z,70.12
2023-01-12T19:05:46.347Z,70.06
2023-01-12T19:08:31.964Z,70.27
2023-01-12T19:11:08.897Z,69.88
2023-01-12T19:13:57.424Z,69.89
2023-01-12T19:16:42.652Z,69.87
2023-01-12T19:19:11.582Z,69.79
2023-01-12T19:21:57.229Z,70.28
2023-01-12T19:24:42.776Z,70.46
2023-01-12T19:27:31.247Z,69.33
2023-01-12T19:30:01.688Z,69.19
2023-01-12T19:32:30.062Z,69.84
2023-01-12T19:35:09.919Z,70.40
2023-01-12T19:37:39.332Z,70.49
2023-01-12T19:40:16.456Z,70.63
2023-01-12T19:43:01.232Z,70.84
2023-01-12T19:45:31.218Z,69.72
2023-01-12T19:47:59.628Z,70.62
2023-01-12T19:50:28.289Z,70.54
2023-01-12T19:52:57.352Z,70.10
2023-01-12T19:55:25.785Z,69.75
2023-01-12T19:57:55.381Z,70.54
2023-01-12T20:00:24.549Z,70.75
2023-01-12T20:02:55.185Z,70.06
2023-01-12T20:05:25.323Z,70.38
2023-01-12T20:07:55.612Z,70.51
2023-01-12T20:10:25.681Z,69.87
2023-01-12T20:12:55.813Z,70.40
2023-01-12T20:15:25.490Z,69.71
2023-01-12T20:18:00.764Z,69.92
2023-01-12T20:20:30.985Z,70.25
2023-01-12T20:23:00.831Z,70.31
2023-01-12T20:25:30.548Z,70.05
2023-01-12T20:28:00.983Z,69.92
2023-01-12T20:30:38.844Z,69.90
2023-01-12T20:33:10.358Z,69.46
2023-01-12T20:35:41.032Z,69.94
2023-01-12T20:38:16.420Z,70.08
2023-01-12T20:40:47.300Z,70.04
2023-01-12T20:43:17.893Z,69.96
2023-01-12T20:45:48.087Z,69.45
2023-01-12T20:48:19.619Z,69.52
2023-01-12T20:50:49.901Z,70.21
2023-01-12T20:53:20.289Z,69.88
2023-01-12T20:55:52.664Z,70.25
2023-01-12T20:58:21.105Z,70.69
2023-01-12T21:00:52.210Z,70.83
2023-01-12T21:03:23.633Z,70.64
2023-01-12T21:05:53.254Z,70.52
2023-01-12T21:08:23.393Z,70.59
2023-01-12T21:10:54.499Z,70.47
2023-01-12T21:13:24.490Z,69.70
2023-01-12T21:16:00.125Z,69.80
2023-01-12T21:18:32.081Z,69.40
2023-01-12T21:21:01.854Z,69.92
2023-01-12T21:23:31.603Z,70.25
2023-01-12T21:26:01.215Z,70.03
2023-01-12T21:28:31.293Z,70.20
2023-01-12T21:31:02.823Z,69.77
2023-01-12T21:33:32.956Z,70.12
2023-01-12T21:36:01.390Z,70.11
2023-01-12T21:38:29.716Z,70.40
2023-01-12T21:41:03.187Z,70.28
2023-01-12T21:43:32.021Z,70.16
2023-01-12T21:46:06.236Z,70.36
2023-01-12T21:48:36.085Z,69.73
2023-01-12T21:51:05.003Z,70.14
2023-01-12T21:53:33.343Z,70.23
2023-01-12T21:56:03.898Z,70.04
2023-01-12T21:58:34.250Z,70.42
2023-01-12T22:01:09.529Z,70.42
2023-01-12T22:03:39.477Z,70.05
2023-01-12T22:06:09.324Z,69.57
2023-01-12T22:08:38.241Z,69.96
2023-01-12T22:11:08.178Z,69.82
2023-01-12T22:13:36.925Z,69.58
2023-01-12T22:16:06.235Z,69.30
2023-01-12T22:18:35.758Z,69.55
2023-01-12T22:21:07.534Z,69.01
2023-01-12T22:23:36.632Z,69.35
2023-01-12T22:26:06.240Z,69.51
2023-01-12T22:28:35.355Z,69.51
2023-01-12T22:31:08.724Z,69.29
2023-01-12T22:33:37.075Z,69.32
2023-01-12T22:36:08.455Z,69.63
2023-01-12T22:38:36.860Z,68.84
2023-01-12T22:41:06.469Z,69.24
2023-01-12T22:43:40.648Z,69.33
2023-01-12T22:46:15.270Z,69.51
2023-01-12T22:48:43.966Z,69.32
2023-01-12T22:51:13.814Z,69.31
2023-01-12T22:53:42.147Z,69.28
2023-01-12T22:56:12.276Z,69.17
2023-01-12T22:58:40.797Z,69.18
2023-01-12T23:01:10.952Z,69.46
2023-01-12T23:03:39.524Z,69.49
2023-01-12T23:06:12.361Z,69.33
2023-01-12T23:08:43.002Z,69.36
2023-01-12T23:11:13.747Z,68.89
2023-01-12T23:13:42.503Z,69.28
2023-01-12T23:16:12.939Z,69.23
2023-01-12T23:18:42.784Z,67.88
2023-01-12T23:21:14.256Z,68.78
2023-01-12T23:23:46.406Z,69.06
2023-01-12T23:26:17.159Z,69.24
2023-01-12T23:28:48.439Z,69.37
2023-01-12T23:31:18.833Z,69.35
2023-01-12T23:33:47.439Z,69.02
2023-01-12T23:36:17.941Z,69.10
2023-01-12T23:38:48.018Z,69.07
2023-01-12T23:41:18.756Z,69.37
2023-01-12T23:43:48.553Z,69.52
2023-01-12T23:46:21.380Z,69.90
2023-01-12T23:48:49.894Z,69.13
2023-01-12T23:51:18.264Z,69.63
2023-01-12T23:53:48.868Z,69.03
2023-01-12T23:56:19.275Z,68.82
2023-01-12T23:58:48.249Z,68.86
